ADDS METAR Data INFO
IDs: Format: Raw Decoded Include TAF

Data at: 1353 UTC 17 Dec 2017

PAKT 171253Z AUTO 14003KT 10SM BKN031 BKN040 OVC047 04/03 A2989 RMK AO2 RAB29E50 SLP121 P0000 T00390028 TSNO
PAKT 171241Z AUTO 00000KT 10SM -RA BKN029 OVC035 04/03 A2989 RMK AO2 RAB29 P0000 T00390028 TSNO
PAKT 171153Z AUTO 16004KT 10SM OVC043 03/02 A2988 RMK AO2 SLP119 60001 70139 T00330022 10061 20028 51020 TSNO
PAKT 171053Z AUTO 18003KT 10SM SCT042 BKN049 BKN065 03/02 A2986 RMK AO2 SLP113 T00330017 TSNO
PAKT 170953Z AUTO 00000KT 10SM FEW036 SCT044 03/02 A2984 RMK AO2 SLP107 T00330017 TSNO
PAKT 170853Z AUTO VRB03KT 10SM BKN044 04/02 A2982 RMK AO2 SLP099 60001 T00440022 400830044 53031 TSNO
PAKT 170753Z AUTO 30009KT 10SM SCT021 BKN033 OVC044 06/03 A2979 RMK AO2 RAE09 SLP089 P0001 T00560028 TSNO
PAKT 170746Z AUTO 30010KT 10SM SCT021 BKN027 OVC039 06/03 A2979 RMK AO2 RAE09 P0001 T00560028 TSNO
PAKT 170727Z AUTO 29008KT 10SM FEW025 BKN037 OVC050 06/03 A2978 RMK AO2 RAE09 P0001 T00560033 TSNO
PAKT 170704Z AUTO 31008KT 10SM -RA FEW021 BKN026 OVC040 06/04 A2976 RMK AO2 P0001 T00560039 TSNO
PAKT 170653Z AUTO 32007KT 7SM -RA FEW023 BKN031 OVC055 06/04 A2975 RMK AO2 RAE0554B44 SLP075 P0000 T00560044 TSNO
PAKT 170553Z VRB06KT 10SM -RA SCT024 BKN031 OVC090 06/04 A2973 RMK AO2 RAB0455 SLP068 P0008 60014 T00560039 10083 20056 53031
PAKT 170453Z 00000KT 10SM SCT032 BKN060 06/04 A2969 RMK AO2 SLP055 T00560044
PAKT 170353Z 28005KT 10SM SCT035 07/04 A2967 RMK AO2 RAE03 SLP047 P0000 T00670039
PAKT 170253Z 30007KT 10SM -RA SCT027 BKN035 OVC060 07/07 A2964 RMK AO2 SLP037 P0003 60006 T00720067 53012
PAKT 170153Z 00000KT 4SM -RA BR SCT015 OVC023 08/07 A2962 RMK AO2 RAB21 SLP029 P0002 T00780072
PAKT 170053Z 14008KT 10SM SCT015 BKN029 OVC070 08/07 A2960 RMK RAE37 SLP022 P0001 T00780072 VIA AUTODIAL
PAKT 162353Z 13007KT 4SM -RA BR OVC015 08/07 A2960 RMK AO2 SLP025 P0003 60057 T00830072 10083 20056 56015
PAKT 162253Z 13013KT 3SM -RA BR SCT020 OVC025 08/07 A2961 RMK AO2 SLP026 HARBOR WND 15018KT P0009 T00830072
PAKT 162153Z 13017KT 3SM RA BR FEW011 SCT018 OVC024 08/07 A2962 RMK AO2 PK WND 12026/2058 SLP029 HARBOR WIND 12018KT VIS 2V4 P0013 T00780072
PAKT 162053Z 13022KT 1 1/2SM R11/5500VP6000FT RA BR SCT006 OVC011 07/07 A2965 RMK AO2 PK WND 13032/2041 SLP040 HARBOR WND 15020KT P0015 60032 T00720067 58029 $
PAKT 161953Z 14018G28KT 3SM RA BR SCT008 OVC011 07/06 A2969 RMK AO2 PK WND 14028/1949 SLP054 HARBOR WND 14020G25KT ROOF WND 15025G35KT P0014 T00670061 $
PAKT 161853Z 14020G26KT 4SM -RA BR SCT008 OVC010 06/05 A2973 RMK AO2 PK WND 14029/1825 SLP067 HARBOR WIND 13020KT P0003 T00610050 $
PAKT 161800Z 14015G21KT 4SM -RA BR OVC013 06/04 A2973 RMK AO2 HARBOR WND 12022KT ROOF WND 14025G35KT P0000 T00560044 $
PAKT 161753Z 14017G26KT 2 1/2SM -RA BR OVC014 06/04 A2973 RMK AO2 PK WND 13032/1709 SLP069 HARBOR WIND 12025KT P0006 60067 T00560044 10056 20044 58017 $
PAKT 161653Z 15016G24KT 8SM -RA OVC012 06/04 A2976 RMK AO2 PK WND 15027/1635 SLP079 HARBOR WIND 11021KT ROOF WIND 15025G40KT P0010 T00560039 $
PAKT 161553Z 13018G23KT 3SM RA BR OVC013 05/04 A2980 RMK AO2 PK WND 13031/1458 SLP093 HARBOR WIND 12021KT P0017 T00500039 $
PAKT 161503Z 14019G31KT 4SM RA BR FEW013 OVC019 04/03 A2979 RMK AO2 PK WND 13031/1458 HARBOR WIND 10025KT P0003 T00440033 $
PAKT 161453Z AUTO 14020G30KT 4SM RA BR SCT013 OVC020 04/03 A2978 RMK AO2 PK WND 13033/1421 SLP086 P0014 60034 T00440033 56054 TSNO $
PAKT 161353Z AUTO 14016G24KT 5SM -RA BR OVC018 04/03 A2983 RMK AO2 PK WND 14026/1328 SLP101 P0008 T00440033 TSNO $
PAKT 161345Z AUTO 14018G22KT 5SM -RA BR OVC016 04/03 A2984 RMK AO2 PK WND 14026/1328 P0007 T00440033 TSNO $
PAKT 161308Z AUTO 14016G22KT 3SM -RA BR FEW009 BKN013 OVC019 04/03 A2988 RMK AO2 P0001 T00440033 TSNO $
PAKT 161253Z AUTO 14018G21KT 3SM RA BR OVC014 04/03 A2989 RMK AO2 SLP122 P0012 T00440033 TSNO $
PAKT 161240Z AUTO 13014KT 4SM -RA BR OVC014 04/03 A2990 RMK AO2 P0010 T00440033 TSNO $
PAKT 161224Z AUTO 13017KT 3SM RA BR OVC016 04/04 A2991 RMK AO2 PRESFR P0005 T00440039 TSNO $
PAKT 161153Z AUTO 13016KT 2 1/2SM RA BR OVC016 04/03 A2994 RMK AO2 SLP140 P0013 60029 70043 T00440028 10056 20044 56024 TSNO $
PAKT 161053Z AUTO 14013G20KT 4SM -RA BR OVC018 04/03 A2996 RMK AO2 SLP146 P0007 T00440033 TSNO $
PAKT 161049Z AUTO 14012KT 4SM RA BR BKN016 OVC021 04/03 A2997 RMK AO2 P0006 TSNO $
PAKT 161028Z AUTO 14017G22KT 6SM -RA BR BKN014 OVC023 05/03 A2998 RMK AO2 PRESFR P0002 T00500033 TSNO $
PAKT 160953Z AUTO 14013G23KT 6SM -RA BR BKN018 OVC025 05/03 A3001 RMK AO2 SLP164 P0004 T00500033 TSNO $
PAKT 160853Z AUTO 13014KT 9SM -RA BKN015 BKN021 OVC028 06/04 A3003 RMK AO2 RAB31 SLP171 P0001 60005 T00560039 400610028 58017 TSNO $
PAKT 160833Z AUTO 14011KT 10SM -RA OVC015 06/04 A3005 RMK AO2 RAB31 P0001 T00560039 TSNO $
PAKT 160753Z AUTO 16006KT 10SM OVC011 05/04 A3007 RMK AO2 RAB0655E49 SLP183 P0003 T00500044 TSNO $
PAKT 160750Z AUTO 16007KT 10SM BKN011 OVC025 05/04 A3007 RMK AO2 RAB0655E49 P0003 TSNO $
PAKT 160742Z AUTO 14010KT 6SM -RA BR BKN009 OVC025 05/04 A3008 RMK AO2 RAB0655 P0003 T00500039 TSNO $
PAKT 160734Z AUTO 13009KT 5SM -RA BR BKN013 OVC023 05/04 A3008 RMK AO2 RAB0655 P0003 T00500039 TSNO $
PAKT 160653Z AUTO 16007KT 10SM OVC020 05/04 A3008 RMK AO2 RAE25 SLP188 P0001 T00500039 TSNO $
PAKT 160553Z 15008KT 7SM -RA BKN019 OVC027 05/04 A3009 RMK AO2 RAB10 SLP191 P0000 60000 T00500039 10056 20039 58011
PAKT 160453Z 16006KT 10SM SCT019 BKN026 OVC035 04/03 A3012 RMK AO2 SLP199 T00440033
PAKT 160353Z 16007KT 10SM FEW010 BKN035 04/03 A3013 RMK AO2 SLP203 T00390028
PAKT 160253Z 18004KT 10SM OVC035 04/03 A3013 RMK AO2 SLP202 T00440033 50001